sensor_id;sensor_type;location;lat;lon;timestamp;P1;durP1;ratioP1;P2;durP2;ratioP2
52854;SDS011;38719;51.418;7.286;2023-08-24T00:01:29;15.00;;;4.50;;
52854;SDS011;38719;51.418;7.286;2023-08-24T00:03:57;4.63;;;3.75;;
52854;SDS011;38719;51.418;7.286;2023-08-24T00:06:25;6.75;;;4.53;;
52854;SDS011;38719;51.418;7.286;2023-08-24T00:08:53;10.18;;;4.28;;
52854;SDS011;38719;51.418;7.286;2023-08-24T00:11:21;7.22;;;4.30;;
52854;SDS011;38719;51.418;7.286;2023-08-24T00:13:50;10.20;;;4.28;;
52854;SDS011;38719;51.418;7.286;2023-08-24T00:16:18;7.75;;;4.07;;
52854;SDS011;38719;51.418;7.286;2023-08-24T00:18:47;6.53;;;4.25;;
52854;SDS011;38719;51.418;7.286;2023-08-24T00:21:15;7.78;;;4.50;;
52854;SDS011;38719;51.418;7.286;2023-08-24T00:23:45;15.73;;;5.95;;
52854;SDS011;38719;51.418;7.286;2023-08-24T00:26:13;9.38;;;4.30;;
52854;SDS011;38719;51.418;7.286;2023-08-24T00:28:43;9.07;;;4.60;;
52854;SDS011;38719;51.418;7.286;2023-08-24T00:31:11;8.43;;;4.25;;
52854;SDS011;38719;51.418;7.286;2023-08-24T00:33:39;6.72;;;4.60;;
52854;SDS011;38719;51.418;7.286;2023-08-24T00:36:07;10.52;;;4.28;;
52854;SDS011;38719;51.418;7.286;2023-08-24T00:38:35;6.80;;;4.50;;
52854;SDS011;38719;51.418;7.286;2023-08-24T00:41:03;8.32;;;4.18;;
52854;SDS011;38719;51.418;7.286;2023-08-24T00:43:31;9.93;;;4.75;;
52854;SDS011;38719;51.418;7.286;2023-08-24T00:45:59;8.82;;;4.25;;
52854;SDS011;38719;51.418;7.286;2023-08-24T00:48:30;6.38;;;4.20;;
52854;SDS011;38719;51.418;7.286;2023-08-24T00:50:59;9.15;;;4.50;;
52854;SDS011;38719;51.418;7.286;2023-08-24T00:53:28;9.88;;;4.53;;
52854;SDS011;38719;51.418;7.286;2023-08-24T00:55:57;10.75;;;4.53;;
52854;SDS011;38719;51.418;7.286;2023-08-24T00:58:26;7.78;;;4.40;;
52854;SDS011;38719;51.418;7.286;2023-08-24T01:00:55;5.13;;;4.30;;
52854;SDS011;38719;51.418;7.286;2023-08-24T01:03:24;7.30;;;4.20;;
52854;SDS011;38719;51.418;7.286;2023-08-24T01:05:53;11.43;;;4.85;;
52854;SDS011;38719;51.418;7.286;2023-08-24T01:08:21;13.13;;;5.40;;
52854;SDS011;38719;51.418;7.286;2023-08-24T01:10:52;8.10;;;5.05;;
52854;SDS011;38719;51.418;7.286;2023-08-24T01:13:27;8.07;;;5.45;;
52854;SDS011;38719;51.418;7.286;2023-08-24T01:16:01;7.45;;;5.20;;
52854;SDS011;38719;51.418;7.286;2023-08-24T01:18:35;7.03;;;4.57;;
52854;SDS011;38719;51.418;7.286;2023-08-24T01:21:06;8.43;;;4.30;;
52854;SDS011;38719;51.418;7.286;2023-08-24T01:23:36;8.75;;;4.95;;
52854;SDS011;38719;51.418;7.286;2023-08-24T01:26:12;8.38;;;4.82;;
52854;SDS011;38719;51.418;7.286;2023-08-24T01:28:44;12.70;;;4.72;;
52854;SDS011;38719;51.418;7.286;2023-08-24T01:31:13;6.20;;;4.40;;
52854;SDS011;38719;51.418;7.286;2023-08-24T01:33:41;7.55;;;4.22;;
52854;SDS011;38719;51.418;7.286;2023-08-24T01:36:08;7.72;;;4.55;;
52854;SDS011;38719;51.418;7.286;2023-08-24T01:38:38;8.43;;;4.70;;
52854;SDS011;38719;51.418;7.286;2023-08-24T01:41:09;9.88;;;4.15;;
52854;SDS011;38719;51.418;7.286;2023-08-24T01:43:46;7.35;;;4.60;;
52854;SDS011;38719;51.418;7.286;2023-08-24T01:46:19;7.57;;;4.50;;
52854;SDS011;38719;51.418;7.286;2023-08-24T01:48:48;7.38;;;4.57;;
52854;SDS011;38719;51.418;7.286;2023-08-24T01:51:18;6.32;;;4.80;;
52854;SDS011;38719;51.418;7.286;2023-08-24T01:53:46;12.32;;;5.32;;
52854;SDS011;38719;51.418;7.286;2023-08-24T01:56:16;6.47;;;4.75;;
52854;SDS011;38719;51.418;7.286;2023-08-24T01:58:44;8.27;;;5.22;;
52854;SDS011;38719;51.418;7.286;2023-08-24T02:01:12;8.93;;;5.18;;
52854;SDS011;38719;51.418;7.286;2023-08-24T02:03:40;11.05;;;5.03;;
52854;SDS011;38719;51.418;7.286;2023-08-24T02:06:07;5.78;;;4.18;;
52854;SDS011;38719;51.418;7.286;2023-08-24T02:08:35;8.60;;;4.60;;
52854;SDS011;38719;51.418;7.286;2023-08-24T02:11:03;10.05;;;4.85;;
52854;SDS011;38719;51.418;7.286;2023-08-24T02:13:32;8.32;;;5.18;;
52854;SDS011;38719;51.418;7.286;2023-08-24T02:16:03;7.13;;;4.53;;
52854;SDS011;38719;51.418;7.286;2023-08-24T02:18:31;12.60;;;4.88;;
52854;SDS011;38719;51.418;7.286;2023-08-24T02:21:00;9.90;;;5.32;;
52854;SDS011;38719;51.418;7.286;2023-08-24T02:23:28;9.15;;;5.20;;
52854;SDS011;38719;51.418;7.286;2023-08-24T02:25:56;7.35;;;4.55;;
52854;SDS011;38719;51.418;7.286;2023-08-24T02:28:24;6.60;;;4.55;;
52854;SDS011;38719;51.418;7.286;2023-08-24T02:30:53;9.27;;;4.82;;
52854;SDS011;38719;51.418;7.286;2023-08-24T02:33:20;9.93;;;5.32;;
52854;SDS011;38719;51.418;7.286;2023-08-24T02:35:48;7.30;;;4.75;;
52854;SDS011;38719;51.418;7.286;2023-08-24T02:38:15;6.10;;;4.90;;
52854;SDS011;38719;51.418;7.286;2023-08-24T02:40:43;7.32;;;5.00;;
52854;SDS011;38719;51.418;7.286;2023-08-24T02:43:11;7.32;;;4.63;;
52854;SDS011;38719;51.418;7.286;2023-08-24T02:45:39;10.45;;;5.10;;
52854;SDS011;38719;51.418;7.286;2023-08-24T02:48:08;10.73;;;6.10;;
52854;SDS011;38719;51.418;7.286;2023-08-24T02:50:35;16.80;;;5.30;;
52854;SDS011;38719;51.418;7.286;2023-08-24T02:53:03;9.10;;;5.28;;
52854;SDS011;38719;51.418;7.286;2023-08-24T02:55:31;7.00;;;5.03;;
52854;SDS011;38719;51.418;7.286;2023-08-24T02:57:59;10.32;;;6.05;;
52854;SDS011;38719;51.418;7.286;2023-08-24T03:00:26;8.27;;;5.18;;
52854;SDS011;38719;51.418;7.286;2023-08-24T03:02:54;8.25;;;5.50;;
52854;SDS011;38719;51.418;7.286;2023-08-24T03:05:23;7.47;;;5.40;;
52854;SDS011;38719;51.418;7.286;2023-08-24T03:07:51;8.75;;;5.07;;
52854;SDS011;38719;51.418;7.286;2023-08-24T03:10:18;11.50;;;5.10;;
52854;SDS011;38719;51.418;7.286;2023-08-24T03:12:46;7.57;;;4.93;;
52854;SDS011;38719;51.418;7.286;2023-08-24T03:15:13;7.32;;;5.03;;
52854;SDS011;38719;51.418;7.286;2023-08-24T03:17:41;10.02;;;4.88;;
52854;SDS011;38719;51.418;7.286;2023-08-24T03:20:09;9.13;;;5.30;;
52854;SDS011;38719;51.418;7.286;2023-08-24T03:22:39;6.90;;;4.90;;
52854;SDS011;38719;51.418;7.286;2023-08-24T03:25:08;7.45;;;4.90;;
52854;SDS011;38719;51.418;7.286;2023-08-24T03:27:35;8.10;;;5.10;;
52854;SDS011;38719;51.418;7.286;2023-08-24T03:30:05;10.40;;;4.85;;
52854;SDS011;38719;51.418;7.286;2023-08-24T03:32:34;10.10;;;5.05;;
52854;SDS011;38719;51.418;7.286;2023-08-24T03:35:01;9.25;;;4.82;;
52854;SDS011;38719;51.418;7.286;2023-08-24T03:37:29;6.85;;;4.75;;
52854;SDS011;38719;51.418;7.286;2023-08-24T03:39:58;6.93;;;5.07;;
52854;SDS011;38719;51.418;7.286;2023-08-24T03:42:26;8.85;;;4.82;;
52854;SDS011;38719;51.418;7.286;2023-08-24T03:44:53;6.93;;;4.82;;
52854;SDS011;38719;51.418;7.286;2023-08-24T03:47:21;8.48;;;4.93;;
52854;SDS011;38719;51.418;7.286;2023-08-24T03:49:48;9.00;;;5.07;;
52854;SDS011;38719;51.418;7.286;2023-08-24T03:52:16;7.15;;;4.85;;
52854;SDS011;38719;51.418;7.286;2023-08-24T03:54:44;15.18;;;5.43;;
52854;SDS011;38719;51.418;7.286;2023-08-24T03:57:13;8.73;;;4.70;;
52854;SDS011;38719;51.418;7.286;2023-08-24T03:59:41;7.07;;;4.75;;
52854;SDS011;38719;51.418;7.286;2023-08-24T04:02:09;6.65;;;4.22;;
52854;SDS011;38719;51.418;7.286;2023-08-24T04:04:36;7.03;;;4.70;;
52854;SDS011;38719;51.418;7.286;2023-08-24T04:07:04;5.93;;;4.50;;
52854;SDS011;38719;51.418;7.286;2023-08-24T04:09:32;9.15;;;4.57;;
52854;SDS011;38719;51.418;7.286;2023-08-24T04:11:59;5.03;;;4.20;;
52854;SDS011;38719;51.418;7.286;2023-08-24T04:14:28;6.93;;;4.53;;
52854;SDS011;38719;51.418;7.286;2023-08-24T04:16:56;8.02;;;4.68;;
52854;SDS011;38719;51.418;7.286;2023-08-24T04:19:23;6.50;;;4.72;;
52854;SDS011;38719;51.418;7.286;2023-08-24T04:21:51;7.15;;;4.93;;
52854;SDS011;38719;51.418;7.286;2023-08-24T04:24:18;6.30;;;4.10;;
52854;SDS011;38719;51.418;7.286;2023-08-24T04:26:46;9.00;;;4.53;;
52854;SDS011;38719;51.418;7.286;2023-08-24T04:29:14;7.72;;;4.30;;
52854;SDS011;38719;51.418;7.286;2023-08-24T04:31:43;7.00;;;4.57;;
52854;SDS011;38719;51.418;7.286;2023-08-24T04:34:10;7.50;;;4.85;;
52854;SDS011;38719;51.418;7.286;2023-08-24T04:36:38;7.43;;;4.50;;
52854;SDS011;38719;51.418;7.286;2023-08-24T04:39:05;12.20;;;4.47;;
52854;SDS011;38719;51.418;7.286;2023-08-24T04:41:33;7.25;;;4.60;;
52854;SDS011;38719;51.418;7.286;2023-08-24T04:44:01;10.23;;;4.50;;
52854;SDS011;38719;51.418;7.286;2023-08-24T04:46:28;11.50;;;4.97;;
52854;SDS011;38719;51.418;7.286;2023-08-24T04:48:57;8.80;;;4.80;;
52854;SDS011;38719;51.418;7.286;2023-08-24T04:51:25;8.20;;;5.00;;
52854;SDS011;38719;51.418;7.286;2023-08-24T04:53:54;9.10;;;5.30;;
52854;SDS011;38719;51.418;7.286;2023-08-24T04:56:21;10.07;;;5.45;;
52854;SDS011;38719;51.418;7.286;2023-08-24T04:58:52;8.73;;;5.30;;
52854;SDS011;38719;51.418;7.286;2023-08-24T05:01:21;12.93;;;4.90;;
52854;SDS011;38719;51.418;7.286;2023-08-24T05:03:49;7.28;;;4.85;;
52854;SDS011;38719;51.418;7.286;2023-08-24T05:06:18;8.30;;;4.78;;
52854;SDS011;38719;51.418;7.286;2023-08-24T05:08:45;10.68;;;4.05;;
52854;SDS011;38719;51.418;7.286;2023-08-24T05:11:13;12.32;;;4.70;;
52854;SDS011;38719;51.418;7.286;2023-08-24T05:13:44;11.07;;;4.55;;
52854;SDS011;38719;51.418;7.286;2023-08-24T05:16:12;6.88;;;4.70;;
52854;SDS011;38719;51.418;7.286;2023-08-24T05:18:40;7.10;;;4.30;;
52854;SDS011;38719;51.418;7.286;2023-08-24T05:21:08;13.50;;;5.97;;
52854;SDS011;38719;51.418;7.286;2023-08-24T05:23:37;7.18;;;4.70;;
52854;SDS011;38719;51.418;7.286;2023-08-24T05:26:04;7.78;;;4.75;;
52854;SDS011;38719;51.418;7.286;2023-08-24T05:28:32;8.15;;;5.35;;
52854;SDS011;38719;51.418;7.286;2023-08-24T05:31:00;9.15;;;4.82;;
52854;SDS011;38719;51.418;7.286;2023-08-24T05:33:28;12.15;;;5.07;;
52854;SDS011;38719;51.418;7.286;2023-08-24T05:35:57;10.80;;;4.80;;
52854;SDS011;38719;51.418;7.286;2023-08-24T05:38:25;12.80;;;5.55;;
52854;SDS011;38719;51.418;7.286;2023-08-24T05:40:54;12.68;;;5.18;;
52854;SDS011;38719;51.418;7.286;2023-08-24T05:43:21;10.90;;;5.22;;
52854;SDS011;38719;51.418;7.286;2023-08-24T05:45:49;10.02;;;4.97;;
52854;SDS011;38719;51.418;7.286;2023-08-24T05:48:17;5.63;;;4.53;;
52854;SDS011;38719;51.418;7.286;2023-08-24T05:50:44;8.38;;;4.55;;
52854;SDS011;38719;51.418;7.286;2023-08-24T05:53:13;9.77;;;5.85;;
52854;SDS011;38719;51.418;7.286;2023-08-24T05:55:41;9.77;;;5.32;;
52854;SDS011;38719;51.418;7.286;2023-08-24T05:58:09;7.82;;;5.05;;
52854;SDS011;38719;51.418;7.286;2023-08-24T06:00:37;8.65;;;5.20;;
52854;SDS011;38719;51.418;7.286;2023-08-24T06:03:05;14.65;;;5.43;;
52854;SDS011;38719;51.418;7.286;2023-08-24T06:05:32;8.40;;;5.00;;
52854;SDS011;38719;51.418;7.286;2023-08-24T06:08:00;10.27;;;5.38;;
52854;SDS011;38719;51.418;7.286;2023-08-24T06:10:27;11.38;;;4.90;;
52854;SDS011;38719;51.418;7.286;2023-08-24T06:12:57;11.00;;;4.75;;
52854;SDS011;38719;51.418;7.286;2023-08-24T06:15:25;8.45;;;4.88;;
52854;SDS011;38719;51.418;7.286;2023-08-24T06:17:54;9.35;;;4.95;;
52854;SDS011;38719;51.418;7.286;2023-08-24T06:20:21;7.78;;;4.38;;
52854;SDS011;38719;51.418;7.286;2023-08-24T06:22:49;9.65;;;4.40;;
52854;SDS011;38719;51.418;7.286;2023-08-24T06:25:17;11.15;;;4.93;;
52854;SDS011;38719;51.418;7.286;2023-08-24T06:27:45;9.82;;;4.43;;
52854;SDS011;38719;51.418;7.286;2023-08-24T06:30:13;7.57;;;4.20;;
52854;SDS011;38719;51.418;7.286;2023-08-24T06:32:44;11.63;;;4.30;;
52854;SDS011;38719;51.418;7.286;2023-08-24T06:35:11;10.43;;;4.90;;
52854;SDS011;38719;51.418;7.286;2023-08-24T06:37:41;7.97;;;4.28;;
52854;SDS011;38719;51.418;7.286;2023-08-24T06:40:09;10.48;;;5.53;;
52854;SDS011;38719;51.418;7.286;2023-08-24T06:42:37;7.47;;;4.45;;
52854;SDS011;38719;51.418;7.286;2023-08-24T06:45:05;10.88;;;4.18;;
52854;SDS011;38719;51.418;7.286;2023-08-24T06:47:36;7.60;;;4.03;;
52854;SDS011;38719;51.418;7.286;2023-08-24T06:50:06;6.55;;;3.83;;
52854;SDS011;38719;51.418;7.286;2023-08-24T06:52:34;8.25;;;3.55;;
52854;SDS011;38719;51.418;7.286;2023-08-24T06:55:01;8.70;;;4.35;;
52854;SDS011;38719;51.418;7.286;2023-08-24T06:57:29;7.30;;;4.70;;
52854;SDS011;38719;51.418;7.286;2023-08-24T06:59:57;16.08;;;5.65;;
52854;SDS011;38719;51.418;7.286;2023-08-24T07:02:24;8.35;;;4.47;;
52854;SDS011;38719;51.418;7.286;2023-08-24T07:04:52;9.65;;;5.78;;
52854;SDS011;38719;51.418;7.286;2023-08-24T07:07:21;20.67;;;6.35;;
52854;SDS011;38719;51.418;7.286;2023-08-24T07:09:48;13.25;;;6.00;;
52854;SDS011;38719;51.418;7.286;2023-08-24T07:12:16;9.23;;;5.45;;
52854;SDS011;38719;51.418;7.286;2023-08-24T07:14:44;14.23;;;5.40;;
52854;SDS011;38719;51.418;7.286;2023-08-24T07:17:11;9.10;;;5.25;;
52854;SDS011;38719;51.418;7.286;2023-08-24T07:19:39;9.85;;;5.63;;
52854;SDS011;38719;51.418;7.286;2023-08-24T07:22:07;11.75;;;5.97;;
52854;SDS011;38719;51.418;7.286;2023-08-24T07:24:36;12.98;;;5.70;;
52854;SDS011;38719;51.418;7.286;2023-08-24T07:27:11;12.05;;;5.95;;
52854;SDS011;38719;51.418;7.286;2023-08-24T07:29:39;11.43;;;5.57;;
52854;SDS011;38719;51.418;7.286;2023-08-24T07:32:06;10.38;;;5.28;;
52854;SDS011;38719;51.418;7.286;2023-08-24T07:34:34;9.70;;;5.25;;
52854;SDS011;38719;51.418;7.286;2023-08-24T07:37:02;9.85;;;5.55;;
52854;SDS011;38719;51.418;7.286;2023-08-24T07:39:30;16.80;;;5.60;;
52854;SDS011;38719;51.418;7.286;2023-08-24T07:41:59;11.18;;;5.55;;
52854;SDS011;38719;51.418;7.286;2023-08-24T07:44:27;13.13;;;6.47;;
52854;SDS011;38719;51.418;7.286;2023-08-24T07:46:54;11.70;;;5.95;;
52854;SDS011;38719;51.418;7.286;2023-08-24T07:49:22;16.25;;;6.15;;
52854;SDS011;38719;51.418;7.286;2023-08-24T07:51:50;17.00;;;5.65;;
52854;SDS011;38719;51.418;7.286;2023-08-24T07:54:17;13.02;;;5.68;;
52854;SDS011;38719;51.418;7.286;2023-08-24T07:56:46;9.65;;;6.13;;
52854;SDS011;38719;51.418;7.286;2023-08-24T07:59:15;10.27;;;5.30;;
52854;SDS011;38719;51.418;7.286;2023-08-24T08:01:43;13.77;;;5.97;;
52854;SDS011;38719;51.418;7.286;2023-08-24T08:04:10;10.38;;;5.10;;
52854;SDS011;38719;51.418;7.286;2023-08-24T08:06:38;10.07;;;5.28;;
52854;SDS011;38719;51.418;7.286;2023-08-24T08:09:05;7.80;;;5.53;;
52854;SDS011;38719;51.418;7.286;2023-08-24T08:11:33;14.52;;;5.10;;
52854;SDS011;38719;51.418;7.286;2023-08-24T08:14:01;11.57;;;5.18;;
52854;SDS011;38719;51.418;7.286;2023-08-24T08:16:30;10.63;;;5.50;;
52854;SDS011;38719;51.418;7.286;2023-08-24T08:18:58;8.98;;;5.00;;
52854;SDS011;38719;51.418;7.286;2023-08-24T08:21:25;8.35;;;4.90;;
52854;SDS011;38719;51.418;7.286;2023-08-24T08:23:54;11.55;;;5.05;;
52854;SDS011;38719;51.418;7.286;2023-08-24T08:26:21;14.30;;;5.18;;
52854;SDS011;38719;51.418;7.286;2023-08-24T08:28:49;10.68;;;4.07;;
52854;SDS011;38719;51.418;7.286;2023-08-24T08:31:17;8.85;;;4.82;;
52854;SDS011;38719;51.418;7.286;2023-08-24T08:33:48;10.50;;;4.97;;
52854;SDS011;38719;51.418;7.286;2023-08-24T08:36:17;6.68;;;4.38;;
52854;SDS011;38719;51.418;7.286;2023-08-24T08:38:45;7.65;;;4.82;;
52854;SDS011;38719;51.418;7.286;2023-08-24T08:41:12;6.85;;;3.90;;
52854;SDS011;38719;51.418;7.286;2023-08-24T08:43:42;7.55;;;4.05;;
52854;SDS011;38719;51.418;7.286;2023-08-24T08:46:09;9.38;;;4.30;;
52854;SDS011;38719;51.418;7.286;2023-08-24T08:48:39;8.05;;;4.60;;
52854;SDS011;38719;51.418;7.286;2023-08-24T08:51:09;5.57;;;3.90;;
52854;SDS011;38719;51.418;7.286;2023-08-24T08:53:39;8.00;;;3.58;;
52854;SDS011;38719;51.418;7.286;2023-08-24T08:56:06;8.80;;;4.72;;
52854;SDS011;38719;51.418;7.286;2023-08-24T08:58:35;7.38;;;3.85;;
52854;SDS011;38719;51.418;7.286;2023-08-24T09:01:03;6.10;;;3.95;;
52854;SDS011;38719;51.418;7.286;2023-08-24T09:03:32;8.23;;;4.18;;
52854;SDS011;38719;51.418;7.286;2023-08-24T09:06:00;5.30;;;3.92;;
52854;SDS011;38719;51.418;7.286;2023-08-24T09:08:30;5.38;;;3.70;;
52854;SDS011;38719;51.418;7.286;2023-08-24T09:10:58;7.97;;;3.38;;
52854;SDS011;38719;51.418;7.286;2023-08-24T09:13:26;11.30;;;3.70;;
52854;SDS011;38719;51.418;7.286;2023-08-24T09:15:54;4.70;;;3.58;;
52854;SDS011;38719;51.418;7.286;2023-08-24T09:18:36;6.70;;;3.65;;
52854;SDS011;38719;51.418;7.286;2023-08-24T09:21:08;15.02;;;4.85;;
52854;SDS011;38719;51.418;7.286;2023-08-24T09:23:38;9.05;;;4.32;;
52854;SDS011;38719;51.418;7.286;2023-08-24T09:26:10;11.13;;;4.23;;
52854;SDS011;38719;51.418;7.286;2023-08-24T09:28:37;4.75;;;3.30;;
52854;SDS011;38719;51.418;7.286;2023-08-24T09:31:06;8.95;;;3.80;;
52854;SDS011;38719;51.418;7.286;2023-08-24T09:33:34;6.45;;;3.47;;
52854;SDS011;38719;51.418;7.286;2023-08-24T09:36:05;8.98;;;4.00;;
52854;SDS011;38719;51.418;7.286;2023-08-24T09:38:33;8.98;;;3.60;;
52854;SDS011;38719;51.418;7.286;2023-08-24T09:41:03;6.03;;;3.45;;
52854;SDS011;38719;51.418;7.286;2023-08-24T09:43:31;6.50;;;3.25;;
52854;SDS011;38719;51.418;7.286;2023-08-24T09:45:59;5.68;;;3.22;;
52854;SDS011;38719;51.418;7.286;2023-08-24T09:48:26;5.65;;;3.40;;
52854;SDS011;38719;51.418;7.286;2023-08-24T09:50:55;6.50;;;3.63;;
52854;SDS011;38719;51.418;7.286;2023-08-24T09:53:24;6.68;;;3.10;;
52854;SDS011;38719;51.418;7.286;2023-08-24T09:55:53;5.70;;;3.00;;
52854;SDS011;38719;51.418;7.286;2023-08-24T09:58:23;6.95;;;3.42;;
52854;SDS011;38719;51.418;7.286;2023-08-24T10:00:51;10.60;;;3.08;;
52854;SDS011;38719;51.418;7.286;2023-08-24T10:03:19;6.00;;;3.00;;
52854;SDS011;38719;51.418;7.286;2023-08-24T10:05:49;4.15;;;2.85;;
52854;SDS011;38719;51.418;7.286;2023-08-24T10:08:26;8.38;;;3.42;;
52854;SDS011;38719;51.418;7.286;2023-08-24T10:10:55;5.55;;;3.00;;
52854;SDS011;38719;51.418;7.286;2023-08-24T10:13:29;11.10;;;3.20;;
52854;SDS011;38719;51.418;7.286;2023-08-24T10:16:03;4.07;;;2.88;;
52854;SDS011;38719;51.418;7.286;2023-08-24T10:18:32;4.07;;;2.70;;
52854;SDS011;38719;51.418;7.286;2023-08-24T10:21:00;11.38;;;2.75;;
52854;SDS011;38719;51.418;7.286;2023-08-24T10:23:28;4.57;;;2.88;;
52854;SDS011;38719;51.418;7.286;2023-08-24T10:25:57;3.80;;;2.80;;
52854;SDS011;38719;51.418;7.286;2023-08-24T10:28:31;4.40;;;2.60;;
52854;SDS011;38719;51.418;7.286;2023-08-24T10:30:59;6.18;;;3.00;;
52854;SDS011;38719;51.418;7.286;2023-08-24T10:33:28;5.75;;;2.80;;
52854;SDS011;38719;51.418;7.286;2023-08-24T10:35:57;4.25;;;2.80;;
52854;SDS011;38719;51.418;7.286;2023-08-24T10:38:25;3.33;;;2.90;;
52854;SDS011;38719;51.418;7.286;2023-08-24T10:41:01;4.75;;;2.78;;
52854;SDS011;38719;51.418;7.286;2023-08-24T10:43:31;4.60;;;2.80;;
52854;SDS011;38719;51.418;7.286;2023-08-24T10:46:01;5.00;;;2.67;;
52854;SDS011;38719;51.418;7.286;2023-08-24T10:48:31;5.45;;;2.83;;
52854;SDS011;38719;51.418;7.286;2023-08-24T10:51:25;4.30;;;2.83;;
52854;SDS011;38719;51.418;7.286;2023-08-24T10:53:55;4.70;;;3.08;;
52854;SDS011;38719;51.418;7.286;2023-08-24T10:56:29;5.22;;;2.95;;
52854;SDS011;38719;51.418;7.286;2023-08-24T10:59:16;90.07;;;9.20;;
52854;SDS011;38719;51.418;7.286;2023-08-24T11:01:54;6.57;;;2.97;;
52854;SDS011;38719;51.418;7.286;2023-08-24T11:04:22;5.47;;;2.72;;
52854;SDS011;38719;51.418;7.286;2023-08-24T11:06:52;6.25;;;2.88;;
52854;SDS011;38719;51.418;7.286;2023-08-24T11:09:22;3.38;;;2.65;;
52854;SDS011;38719;51.418;7.286;2023-08-24T11:11:56;6.13;;;3.38;;
52854;SDS011;38719;51.418;7.286;2023-08-24T11:14:27;6.10;;;2.75;;
52854;SDS011;38719;51.418;7.286;2023-08-24T11:16:57;5.82;;;2.95;;
52854;SDS011;38719;51.418;7.286;2023-08-24T11:19:26;6.55;;;2.78;;
52854;SDS011;38719;51.418;7.286;2023-08-24T11:21:54;4.28;;;2.83;;
52854;SDS011;38719;51.418;7.286;2023-08-24T11:24:22;5.00;;;2.92;;
52854;SDS011;38719;51.418;7.286;2023-08-24T11:26:50;4.50;;;2.60;;
52854;SDS011;38719;51.418;7.286;2023-08-24T11:29:18;4.20;;;2.58;;
52854;SDS011;38719;51.418;7.286;2023-08-24T11:31:47;4.30;;;2.65;;
52854;SDS011;38719;51.418;7.286;2023-08-24T11:34:15;5.15;;;2.63;;
52854;SDS011;38719;51.418;7.286;2023-08-24T11:36:43;4.75;;;2.88;;
52854;SDS011;38719;51.418;7.286;2023-08-24T11:39:14;5.82;;;2.75;;
52854;SDS011;38719;51.418;7.286;2023-08-24T11:41:44;4.47;;;2.88;;
52854;SDS011;38719;51.418;7.286;2023-08-24T11:44:11;4.30;;;3.00;;
52854;SDS011;38719;51.418;7.286;2023-08-24T11:46:55;3.47;;;2.60;;
52854;SDS011;38719;51.418;7.286;2023-08-24T11:49:23;7.18;;;3.00;;
52854;SDS011;38719;51.418;7.286;2023-08-24T11:51:51;5.47;;;2.60;;
52854;SDS011;38719;51.418;7.286;2023-08-24T11:54:19;4.45;;;3.03;;
52854;SDS011;38719;51.418;7.286;2023-08-24T11:56:47;5.30;;;2.83;;
52854;SDS011;38719;51.418;7.286;2023-08-24T11:59:16;5.07;;;2.78;;
52854;SDS011;38719;51.418;7.286;2023-08-24T12:01:44;11.40;;;2.95;;
52854;SDS011;38719;51.418;7.286;2023-08-24T12:04:15;4.78;;;2.70;;
52854;SDS011;38719;51.418;7.286;2023-08-24T12:06:42;5.28;;;2.88;;
52854;SDS011;38719;51.418;7.286;2023-08-24T12:09:10;7.43;;;2.90;;
52854;SDS011;38719;51.418;7.286;2023-08-24T12:11:38;5.22;;;3.00;;
52854;SDS011;38719;51.418;7.286;2023-08-24T12:14:06;4.72;;;2.90;;
52854;SDS011;38719;51.418;7.286;2023-08-24T12:16:36;6.70;;;2.90;;
52854;SDS011;38719;51.418;7.286;2023-08-24T12:19:06;3.70;;;2.70;;
52854;SDS011;38719;51.418;7.286;2023-08-24T12:21:36;3.95;;;2.60;;
52854;SDS011;38719;51.418;7.286;2023-08-24T12:24:04;7.80;;;2.70;;
52854;SDS011;38719;51.418;7.286;2023-08-24T12:26:33;3.95;;;2.83;;
52854;SDS011;38719;51.418;7.286;2023-08-24T12:29:03;7.88;;;2.90;;
52854;SDS011;38719;51.418;7.286;2023-08-24T12:31:32;5.18;;;2.90;;
52854;SDS011;38719;51.418;7.286;2023-08-24T12:34:01;5.80;;;2.97;;
52854;SDS011;38719;51.418;7.286;2023-08-24T12:36:30;7.05;;;2.92;;
52854;SDS011;38719;51.418;7.286;2023-08-24T12:39:01;6.80;;;3.35;;
52854;SDS011;38719;51.418;7.286;2023-08-24T12:41:30;5.63;;;3.10;;
52854;SDS011;38719;51.418;7.286;2023-08-24T12:43:58;5.82;;;3.53;;
52854;SDS011;38719;51.418;7.286;2023-08-24T12:46:31;5.95;;;2.85;;
52854;SDS011;38719;51.418;7.286;2023-08-24T12:48:59;6.75;;;3.05;;
52854;SDS011;38719;51.418;7.286;2023-08-24T12:51:27;7.05;;;3.25;;
52854;SDS011;38719;51.418;7.286;2023-08-24T12:53:55;5.50;;;2.90;;
52854;SDS011;38719;51.418;7.286;2023-08-24T12:56:24;5.28;;;2.88;;
52854;SDS011;38719;51.418;7.286;2023-08-24T12:58:51;5.88;;;3.25;;
52854;SDS011;38719;51.418;7.286;2023-08-24T13:01:20;8.23;;;2.72;;
52854;SDS011;38719;51.418;7.286;2023-08-24T13:03:48;8.10;;;3.05;;
52854;SDS011;38719;51.418;7.286;2023-08-24T13:06:15;9.60;;;3.05;;
52854;SDS011;38719;51.418;7.286;2023-08-24T13:08:46;8.10;;;3.28;;
52854;SDS011;38719;51.418;7.286;2023-08-24T13:11:13;4.95;;;2.85;;
52854;SDS011;38719;51.418;7.286;2023-08-24T13:13:42;4.45;;;2.95;;
52854;SDS011;38719;51.418;7.286;2023-08-24T13:16:11;9.18;;;3.30;;
52854;SDS011;38719;51.418;7.286;2023-08-24T13:18:39;7.82;;;3.08;;
52854;SDS011;38719;51.418;7.286;2023-08-24T13:21:07;9.55;;;3.00;;
52854;SDS011;38719;51.418;7.286;2023-08-24T13:23:34;8.48;;;3.33;;
52854;SDS011;38719;51.418;7.286;2023-08-24T13:26:02;7.95;;;3.58;;
52854;SDS011;38719;51.418;7.286;2023-08-24T13:28:30;5.85;;;3.00;;
52854;SDS011;38719;51.418;7.286;2023-08-24T13:30:59;7.82;;;3.13;;
52854;SDS011;38719;51.418;7.286;2023-08-24T13:33:26;5.30;;;3.00;;
52854;SDS011;38719;51.418;7.286;2023-08-24T13:35:54;7.20;;;3.67;;
52854;SDS011;38719;51.418;7.286;2023-08-24T13:38:21;7.45;;;2.80;;
52854;SDS011;38719;51.418;7.286;2023-08-24T13:40:49;10.18;;;3.10;;
52854;SDS011;38719;51.418;7.286;2023-08-24T13:43:17;6.72;;;2.72;;
52854;SDS011;38719;51.418;7.286;2023-08-24T13:45:46;6.18;;;2.88;;
52854;SDS011;38719;51.418;7.286;2023-08-24T13:48:15;4.70;;;2.92;;
52854;SDS011;38719;51.418;7.286;2023-08-24T13:50:48;15.50;;;3.17;;
52854;SDS011;38719;51.418;7.286;2023-08-24T13:53:17;8.10;;;3.00;;
52854;SDS011;38719;51.418;7.286;2023-08-24T13:55:44;6.80;;;4.03;;
52854;SDS011;38719;51.418;7.286;2023-08-24T13:58:12;8.30;;;3.13;;
52854;SDS011;38719;51.418;7.286;2023-08-24T14:00:39;4.50;;;2.75;;
52854;SDS011;38719;51.418;7.286;2023-08-24T14:03:07;9.80;;;3.08;;
52854;SDS011;38719;51.418;7.286;2023-08-24T14:05:39;6.05;;;3.00;;
52854;SDS011;38719;51.418;7.286;2023-08-24T14:08:07;4.70;;;3.13;;
52854;SDS011;38719;51.418;7.286;2023-08-24T14:10:35;9.68;;;3.60;;
52854;SDS011;38719;51.418;7.286;2023-08-24T14:13:02;4.70;;;3.08;;
52854;SDS011;38719;51.418;7.286;2023-08-24T14:15:30;5.47;;;3.38;;
52854;SDS011;38719;51.418;7.286;2023-08-24T14:17:58;4.88;;;2.95;;
52854;SDS011;38719;51.418;7.286;2023-08-24T14:20:25;6.47;;;3.15;;
52854;SDS011;38719;51.418;7.286;2023-08-24T14:22:55;5.70;;;3.17;;
52854;SDS011;38719;51.418;7.286;2023-08-24T14:25:22;5.60;;;2.97;;
52854;SDS011;38719;51.418;7.286;2023-08-24T14:27:50;8.38;;;3.30;;
52854;SDS011;38719;51.418;7.286;2023-08-24T14:30:30;7.97;;;3.00;;
52854;SDS011;38719;51.418;7.286;2023-08-24T14:32:58;4.90;;;2.95;;
52854;SDS011;38719;51.418;7.286;2023-08-24T14:35:25;10.02;;;3.38;;
52854;SDS011;38719;51.418;7.286;2023-08-24T14:37:54;11.43;;;3.60;;
52854;SDS011;38719;51.418;7.286;2023-08-24T14:40:24;12.30;;;3.28;;
52854;SDS011;38719;51.418;7.286;2023-08-24T14:42:51;6.20;;;2.83;;
52854;SDS011;38719;51.418;7.286;2023-08-24T14:45:21;6.80;;;3.45;;
52854;SDS011;38719;51.418;7.286;2023-08-24T14:47:48;6.05;;;3.65;;
52854;SDS011;38719;51.418;7.286;2023-08-24T14:50:17;7.97;;;3.60;;
52854;SDS011;38719;51.418;7.286;2023-08-24T14:52:44;6.75;;;3.53;;
52854;SDS011;38719;51.418;7.286;2023-08-24T14:55:13;7.25;;;3.45;;